sensor_id;sensor_type;location;lat;lon;timestamp;temperature;humidity
1702;DHT22;848;48.354;10.064;2023-06-04T00:01:13;14.90;99.90
1702;DHT22;848;48.354;10.064;2023-06-04T00:03:40;14.90;99.90
1702;DHT22;848;48.354;10.064;2023-06-04T00:06:07;14.90;99.90
1702;DHT22;848;48.354;10.064;2023-06-04T00:08:35;14.90;99.90
1702;DHT22;848;48.354;10.064;2023-06-04T00:11:02;14.80;99.90
1702;DHT22;848;48.354;10.064;2023-06-04T00:13:29;14.80;99.90
1702;DHT22;848;48.354;10.064;2023-06-04T00:15:56;14.80;99.90
1702;DHT22;848;48.354;10.064;2023-06-04T00:18:23;14.80;99.90
1702;DHT22;848;48.354;10.064;2023-06-04T00:20:50;14.80;99.90
1702;DHT22;848;48.354;10.064;2023-06-04T00:23:17;14.80;99.90
1702;DHT22;848;48.354;10.064;2023-06-04T00:25:45;14.80;99.90
1702;DHT22;848;48.354;10.064;2023-06-04T00:28:12;14.70;99.90
1702;DHT22;848;48.354;10.064;2023-06-04T00:30:39;14.70;99.90
1702;DHT22;848;48.354;10.064;2023-06-04T00:33:06;14.70;99.90
1702;DHT22;848;48.354;10.064;2023-06-04T00:35:32;14.60;99.90
1702;DHT22;848;48.354;10.064;2023-06-04T00:37:59;14.50;99.90
1702;DHT22;848;48.354;10.064;2023-06-04T00:40:26;14.40;99.90
1702;DHT22;848;48.354;10.064;2023-06-04T00:42:54;14.30;99.90
1702;DHT22;848;48.354;10.064;2023-06-04T00:45:22;14.20;99.90
1702;DHT22;848;48.354;10.064;2023-06-04T00:47:51;14.20;99.90
1702;DHT22;848;48.354;10.064;2023-06-04T00:50:19;14.10;99.90
1702;DHT22;848;48.354;10.064;2023-06-04T00:52:47;13.90;99.90
1702;DHT22;848;48.354;10.064;2023-06-04T00:55:14;13.80;99.90
1702;DHT22;848;48.354;10.064;2023-06-04T00:57:44;13.60;99.90
1702;DHT22;848;48.354;10.064;2023-06-04T01:00:13;13.50;99.90
1702;DHT22;848;48.354;10.064;2023-06-04T01:02:41;13.40;99.90
1702;DHT22;848;48.354;10.064;2023-06-04T01:05:16;13.30;99.90
1702;DHT22;848;48.354;10.064;2023-06-04T01:07:47;13.30;99.90
1702;DHT22;848;48.354;10.064;2023-06-04T01:10:14;13.30;99.90
1702;DHT22;848;48.354;10.064;2023-06-04T01:12:42;13.30;99.90
1702;DHT22;848;48.354;10.064;2023-06-04T01:15:11;13.30;99.90
1702;DHT22;848;48.354;10.064;2023-06-04T01:17:40;13.30;99.90
1702;DHT22;848;48.354;10.064;2023-06-04T01:20:22;13.30;99.90
1702;DHT22;848;48.354;10.064;2023-06-04T01:23:01;13.30;99.90
1702;DHT22;848;48.354;10.064;2023-06-04T01:25:36;13.30;99.90
1702;DHT22;848;48.354;10.064;2023-06-04T01:28:05;13.30;99.90
1702;DHT22;848;48.354;10.064;2023-06-04T01:30:36;13.30;99.90
1702;DHT22;848;48.354;10.064;2023-06-04T01:33:08;13.30;99.90
1702;DHT22;848;48.354;10.064;2023-06-04T01:35:36;13.20;99.90
1702;DHT22;848;48.354;10.064;2023-06-04T01:38:03;13.20;99.90
1702;DHT22;848;48.354;10.064;2023-06-04T01:40:31;13.20;99.90
1702;DHT22;848;48.354;10.064;2023-06-04T01:42:58;13.20;99.90
1702;DHT22;848;48.354;10.064;2023-06-04T01:45:26;13.30;99.90
1702;DHT22;848;48.354;10.064;2023-06-04T01:47:55;13.30;99.90
1702;DHT22;848;48.354;10.064;2023-06-04T01:50:23;13.30;99.90
1702;DHT22;848;48.354;10.064;2023-06-04T01:52:50;13.20;99.90
1702;DHT22;848;48.354;10.064;2023-06-04T01:55:17;13.10;99.90
1702;DHT22;848;48.354;10.064;2023-06-04T01:57:45;13.00;99.90
1702;DHT22;848;48.354;10.064;2023-06-04T02:00:13;12.90;99.90
1702;DHT22;848;48.354;10.064;2023-06-04T02:02:41;12.90;99.90
1702;DHT22;848;48.354;10.064;2023-06-04T02:05:11;12.80;99.90
1702;DHT22;848;48.354;10.064;2023-06-04T02:09:13;12.70;99.90
1702;DHT22;848;48.354;10.064;2023-06-04T02:11:40;12.60;99.90
1702;DHT22;848;48.354;10.064;2023-06-04T02:14:07;12.50;99.90
1702;DHT22;848;48.354;10.064;2023-06-04T02:16:34;12.60;99.90
1702;DHT22;848;48.354;10.064;2023-06-04T02:19:01;12.60;99.90
1702;DHT22;848;48.354;10.064;2023-06-04T02:21:29;12.70;99.90
1702;DHT22;848;48.354;10.064;2023-06-04T02:23:55;12.70;99.90
1702;DHT22;848;48.354;10.064;2023-06-04T02:26:24;12.70;99.90
1702;DHT22;848;48.354;10.064;2023-06-04T02:28:51;12.60;99.90
1702;DHT22;848;48.354;10.064;2023-06-04T02:31:17;12.60;99.90
1702;DHT22;848;48.354;10.064;2023-06-04T02:33:44;12.50;99.90
1702;DHT22;848;48.354;10.064;2023-06-04T02:36:11;12.40;99.90
1702;DHT22;848;48.354;10.064;2023-06-04T02:38:38;12.30;99.90
1702;DHT22;848;48.354;10.064;2023-06-04T02:41:05;12.20;99.90
1702;DHT22;848;48.354;10.064;2023-06-04T02:43:33;12.10;99.90
1702;DHT22;848;48.354;10.064;2023-06-04T02:46:00;12.10;99.90
1702;DHT22;848;48.354;10.064;2023-06-04T02:48:27;12.10;99.90
1702;DHT22;848;48.354;10.064;2023-06-04T02:50:54;12.10;99.90
1702;DHT22;848;48.354;10.064;2023-06-04T02:53:21;12.00;99.90
1702;DHT22;848;48.354;10.064;2023-06-04T02:55:49;12.00;99.90
1702;DHT22;848;48.354;10.064;2023-06-04T02:58:17;11.90;99.90
1702;DHT22;848;48.354;10.064;2023-06-04T03:00:45;11.80;99.90
1702;DHT22;848;48.354;10.064;2023-06-04T03:03:12;11.70;99.90
1702;DHT22;848;48.354;10.064;2023-06-04T03:05:39;11.70;99.90
1702;DHT22;848;48.354;10.064;2023-06-04T03:08:08;11.70;99.90
1702;DHT22;848;48.354;10.064;2023-06-04T03:10:35;11.70;99.90
1702;DHT22;848;48.354;10.064;2023-06-04T03:13:02;11.70;99.90
1702;DHT22;848;48.354;10.064;2023-06-04T03:15:29;11.70;99.90
1702;DHT22;848;48.354;10.064;2023-06-04T03:17:58;11.60;99.90
1702;DHT22;848;48.354;10.064;2023-06-04T03:20:25;11.60;99.90
1702;DHT22;848;48.354;10.064;2023-06-04T03:22:52;11.60;99.90
1702;DHT22;848;48.354;10.064;2023-06-04T03:25:19;11.50;99.90
1702;DHT22;848;48.354;10.064;2023-06-04T03:27:46;11.40;99.90
1702;DHT22;848;48.354;10.064;2023-06-04T03:30:13;11.40;99.90
1702;DHT22;848;48.354;10.064;2023-06-04T03:32:40;11.40;99.90
1702;DHT22;848;48.354;10.064;2023-06-04T03:35:09;11.40;99.90
1702;DHT22;848;48.354;10.064;2023-06-04T03:37:35;11.40;99.90
1702;DHT22;848;48.354;10.064;2023-06-04T03:40:04;11.30;99.90
1702;DHT22;848;48.354;10.064;2023-06-04T03:42:31;11.40;99.90
1702;DHT22;848;48.354;10.064;2023-06-04T03:44:58;11.30;99.90
1702;DHT22;848;48.354;10.064;2023-06-04T03:47:25;11.30;99.90
1702;DHT22;848;48.354;10.064;2023-06-04T03:49:52;11.30;99.90
1702;DHT22;848;48.354;10.064;2023-06-04T03:52:20;11.30;99.90
1702;DHT22;848;48.354;10.064;2023-06-04T03:54:47;11.30;99.90
1702;DHT22;848;48.354;10.064;2023-06-04T03:57:14;11.30;99.90
1702;DHT22;848;48.354;10.064;2023-06-04T03:59:41;11.20;99.90
1702;DHT22;848;48.354;10.064;2023-06-04T04:02:08;11.20;99.90
1702;DHT22;848;48.354;10.064;2023-06-04T04:04:34;11.20;99.90
1702;DHT22;848;48.354;10.064;2023-06-04T04:07:01;11.20;99.90
1702;DHT22;848;48.354;10.064;2023-06-04T04:09:30;11.30;99.90
1702;DHT22;848;48.354;10.064;2023-06-04T04:11:56;11.40;99.90
1702;DHT22;848;48.354;10.064;2023-06-04T04:14:24;11.40;99.90
1702;DHT22;848;48.354;10.064;2023-06-04T04:16:51;11.50;99.90
1702;DHT22;848;48.354;10.064;2023-06-04T04:19:18;11.50;99.90
1702;DHT22;848;48.354;10.064;2023-06-04T04:21:46;11.60;99.90
1702;DHT22;848;48.354;10.064;2023-06-04T04:24:22;11.70;99.90
1702;DHT22;848;48.354;10.064;2023-06-04T04:26:50;11.80;99.90
1702;DHT22;848;48.354;10.064;2023-06-04T04:29:19;11.90;99.90
1702;DHT22;848;48.354;10.064;2023-06-04T04:31:48;12.00;99.90
1702;DHT22;848;48.354;10.064;2023-06-04T04:34:15;12.10;99.90
1702;DHT22;848;48.354;10.064;2023-06-04T04:36:42;12.20;99.90
1702;DHT22;848;48.354;10.064;2023-06-04T04:39:09;12.20;99.90
1702;DHT22;848;48.354;10.064;2023-06-04T04:41:37;12.30;99.90
1702;DHT22;848;48.354;10.064;2023-06-04T04:44:05;12.30;99.90
1702;DHT22;848;48.354;10.064;2023-06-04T04:46:32;12.40;99.90
1702;DHT22;848;48.354;10.064;2023-06-04T04:48:59;12.60;99.90
1702;DHT22;848;48.354;10.064;2023-06-04T04:51:26;12.70;99.90
1702;DHT22;848;48.354;10.064;2023-06-04T04:53:53;12.90;99.90
1702;DHT22;848;48.354;10.064;2023-06-04T04:56:20;13.10;99.90
1702;DHT22;848;48.354;10.064;2023-06-04T04:58:48;13.10;99.90
1702;DHT22;848;48.354;10.064;2023-06-04T05:01:16;13.20;99.90
1702;DHT22;848;48.354;10.064;2023-06-04T05:03:43;13.30;99.90
1702;DHT22;848;48.354;10.064;2023-06-04T05:06:10;13.40;99.90
1702;DHT22;848;48.354;10.064;2023-06-04T05:08:37;13.40;99.90
1702;DHT22;848;48.354;10.064;2023-06-04T05:11:04;13.40;99.90
1702;DHT22;848;48.354;10.064;2023-06-04T05:13:31;13.50;99.90
1702;DHT22;848;48.354;10.064;2023-06-04T05:15:58;13.50;99.90
1702;DHT22;848;48.354;10.064;2023-06-04T05:18:33;13.50;99.90
1702;DHT22;848;48.354;10.064;2023-06-04T05:21:00;13.50;99.90
1702;DHT22;848;48.354;10.064;2023-06-04T05:23:28;13.60;99.90
1702;DHT22;848;48.354;10.064;2023-06-04T05:25:55;13.70;99.90
1702;DHT22;848;48.354;10.064;2023-06-04T05:28:22;13.80;99.90
1702;DHT22;848;48.354;10.064;2023-06-04T05:30:50;13.80;99.90
1702;DHT22;848;48.354;10.064;2023-06-04T05:33:17;13.80;99.90
1702;DHT22;848;48.354;10.064;2023-06-04T05:35:46;13.80;99.90
1702;DHT22;848;48.354;10.064;2023-06-04T05:38:13;13.90;99.90
1702;DHT22;848;48.354;10.064;2023-06-04T05:40:42;14.10;99.90
1702;DHT22;848;48.354;10.064;2023-06-04T05:43:09;14.20;99.90
1702;DHT22;848;48.354;10.064;2023-06-04T05:45:36;14.20;99.90
1702;DHT22;848;48.354;10.064;2023-06-04T05:48:04;14.40;99.90
1702;DHT22;848;48.354;10.064;2023-06-04T05:50:31;14.50;99.90
1702;DHT22;848;48.354;10.064;2023-06-04T05:53:00;14.60;99.90
1702;DHT22;848;48.354;10.064;2023-06-04T05:55:26;14.70;99.90
1702;DHT22;848;48.354;10.064;2023-06-04T05:57:54;14.70;99.90
1702;DHT22;848;48.354;10.064;2023-06-04T06:00:21;14.70;99.90
1702;DHT22;848;48.354;10.064;2023-06-04T06:02:49;15.00;99.90
1702;DHT22;848;48.354;10.064;2023-06-04T06:05:17;15.00;99.90
1702;DHT22;848;48.354;10.064;2023-06-04T06:07:44;15.00;99.90
1702;DHT22;848;48.354;10.064;2023-06-04T06:10:13;15.30;99.90
1702;DHT22;848;48.354;10.064;2023-06-04T06:12:41;15.60;99.90
1702;DHT22;848;48.354;10.064;2023-06-04T06:15:09;15.90;99.90
1702;DHT22;848;48.354;10.064;2023-06-04T06:17:38;16.30;99.90
1702;DHT22;848;48.354;10.064;2023-06-04T06:20:06;16.80;99.90
1702;DHT22;848;48.354;10.064;2023-06-04T06:22:33;17.70;99.90
1702;DHT22;848;48.354;10.064;2023-06-04T06:25:01;18.70;99.90
1702;DHT22;848;48.354;10.064;2023-06-04T06:27:30;19.70;99.90
1702;DHT22;848;48.354;10.064;2023-06-04T06:29:56;20.50;99.90
1702;DHT22;848;48.354;10.064;2023-06-04T06:32:23;21.00;99.90
1702;DHT22;848;48.354;10.064;2023-06-04T06:34:50;21.50;99.90
1702;DHT22;848;48.354;10.064;2023-06-04T06:37:17;21.40;99.90
1702;DHT22;848;48.354;10.064;2023-06-04T06:39:44;21.90;99.90
1702;DHT22;848;48.354;10.064;2023-06-04T06:42:11;22.30;99.90
1702;DHT22;848;48.354;10.064;2023-06-04T06:44:39;22.60;99.90
1702;DHT22;848;48.354;10.064;2023-06-04T06:47:06;23.30;99.90
1702;DHT22;848;48.354;10.064;2023-06-04T06:49:33;24.20;99.90
1702;DHT22;848;48.354;10.064;2023-06-04T06:52:00;24.50;99.50
1702;DHT22;848;48.354;10.064;2023-06-04T06:54:27;24.10;98.20
1702;DHT22;848;48.354;10.064;2023-06-04T06:56:54;23.90;98.80
1702;DHT22;848;48.354;10.064;2023-06-04T06:59:21;24.20;98.40
1702;DHT22;848;48.354;10.064;2023-06-04T07:01:49;24.30;98.50
1702;DHT22;848;48.354;10.064;2023-06-04T07:04:16;24.70;97.40
1702;DHT22;848;48.354;10.064;2023-06-04T07:06:43;25.10;96.80
1702;DHT22;848;48.354;10.064;2023-06-04T07:09:10;25.30;96.40
1702;DHT22;848;48.354;10.064;2023-06-04T07:11:37;25.60;96.20
1702;DHT22;848;48.354;10.064;2023-06-04T07:14:04;26.10;95.10
1702;DHT22;848;48.354;10.064;2023-06-04T07:16:31;26.20;95.10
1702;DHT22;848;48.354;10.064;2023-06-04T07:19:01;25.90;94.40
1702;DHT22;848;48.354;10.064;2023-06-04T07:21:28;25.70;94.50
1702;DHT22;848;48.354;10.064;2023-06-04T07:23:55;25.40;95.50
1702;DHT22;848;48.354;10.064;2023-06-04T07:26:21;24.90;95.30
1702;DHT22;848;48.354;10.064;2023-06-04T07:28:49;24.20;96.30
1702;DHT22;848;48.354;10.064;2023-06-04T07:31:16;24.10;96.80
1702;DHT22;848;48.354;10.064;2023-06-04T07:33:44;24.50;96.10
1702;DHT22;848;48.354;10.064;2023-06-04T07:36:12;25.10;95.60
1702;DHT22;848;48.354;10.064;2023-06-04T07:38:39;25.00;95.60
1702;DHT22;848;48.354;10.064;2023-06-04T07:41:06;25.10;94.50
1702;DHT22;848;48.354;10.064;2023-06-04T07:43:33;25.00;95.30
1702;DHT22;848;48.354;10.064;2023-06-04T07:46:00;25.20;95.10
1702;DHT22;848;48.354;10.064;2023-06-04T07:48:27;25.50;94.20
1702;DHT22;848;48.354;10.064;2023-06-04T07:50:57;25.50;94.90
1702;DHT22;848;48.354;10.064;2023-06-04T07:53:25;25.10;94.60
1702;DHT22;848;48.354;10.064;2023-06-04T07:55:53;25.20;94.80
1702;DHT22;848;48.354;10.064;2023-06-04T07:58:20;25.40;94.70
1702;DHT22;848;48.354;10.064;2023-06-04T08:00:47;25.90;95.60
1702;DHT22;848;48.354;10.064;2023-06-04T08:03:14;25.50;93.80
1702;DHT22;848;48.354;10.064;2023-06-04T08:05:41;25.10;95.20
1702;DHT22;848;48.354;10.064;2023-06-04T08:08:08;25.30;94.70
1702;DHT22;848;48.354;10.064;2023-06-04T08:10:36;25.00;94.40
1702;DHT22;848;48.354;10.064;2023-06-04T08:13:05;24.30;95.60
1702;DHT22;848;48.354;10.064;2023-06-04T08:15:32;24.80;95.50
1702;DHT22;848;48.354;10.064;2023-06-04T08:17:59;25.50;95.20
1702;DHT22;848;48.354;10.064;2023-06-04T08:20:26;25.50;94.40
1702;DHT22;848;48.354;10.064;2023-06-04T08:22:53;25.50;95.30
1702;DHT22;848;48.354;10.064;2023-06-04T08:25:20;25.80;95.20
1702;DHT22;848;48.354;10.064;2023-06-04T08:27:48;25.60;94.70
1702;DHT22;848;48.354;10.064;2023-06-04T08:30:15;25.70;94.80
1702;DHT22;848;48.354;10.064;2023-06-04T08:32:42;25.50;94.90
1702;DHT22;848;48.354;10.064;2023-06-04T08:35:09;25.50;95.20
1702;DHT22;848;48.354;10.064;2023-06-04T08:37:36;25.80;94.80
1702;DHT22;848;48.354;10.064;2023-06-04T08:40:04;25.70;94.20
1702;DHT22;848;48.354;10.064;2023-06-04T08:42:36;25.30;95.00
1702;DHT22;848;48.354;10.064;2023-06-04T08:45:10;25.10;95.40
1702;DHT22;848;48.354;10.064;2023-06-04T08:47:39;24.60;96.10
1702;DHT22;848;48.354;10.064;2023-06-04T08:50:09;24.50;96.70
1702;DHT22;848;48.354;10.064;2023-06-04T08:52:37;24.80;96.00
1702;DHT22;848;48.354;10.064;2023-06-04T08:55:05;24.80;95.90
1702;DHT22;848;48.354;10.064;2023-06-04T08:57:32;24.90;96.50
1702;DHT22;848;48.354;10.064;2023-06-04T09:00:00;25.00;96.20
1702;DHT22;848;48.354;10.064;2023-06-04T09:02:32;24.70;96.20
1702;DHT22;848;48.354;10.064;2023-06-04T09:04:59;24.70;96.90
1702;DHT22;848;48.354;10.064;2023-06-04T09:07:27;24.90;97.60
1702;DHT22;848;48.354;10.064;2023-06-04T09:09:54;24.90;95.90
1702;DHT22;848;48.354;10.064;2023-06-04T09:12:23;24.90;95.50
1702;DHT22;848;48.354;10.064;2023-06-04T09:14:50;24.90;95.60
1702;DHT22;848;48.354;10.064;2023-06-04T09:17:21;24.70;97.00
1702;DHT22;848;48.354;10.064;2023-06-04T09:19:50;24.50;97.60
1702;DHT22;848;48.354;10.064;2023-06-04T09:22:17;24.50;98.40
1702;DHT22;848;48.354;10.064;2023-06-04T09:24:45;24.30;98.00
1702;DHT22;848;48.354;10.064;2023-06-04T09:27:14;24.20;97.90
1702;DHT22;848;48.354;10.064;2023-06-04T09:29:48;24.30;97.00
1702;DHT22;848;48.354;10.064;2023-06-04T09:32:20;24.10;96.40
1702;DHT22;848;48.354;10.064;2023-06-04T09:34:47;24.00;96.60
1702;DHT22;848;48.354;10.064;2023-06-04T09:37:16;24.00;97.10
1702;DHT22;848;48.354;10.064;2023-06-04T09:39:43;23.90;96.80
1702;DHT22;848;48.354;10.064;2023-06-04T09:42:10;24.00;98.40
1702;DHT22;848;48.354;10.064;2023-06-04T09:44:43;24.20;98.20
1702;DHT22;848;48.354;10.064;2023-06-04T09:47:11;24.30;98.30
1702;DHT22;848;48.354;10.064;2023-06-04T09:49:41;23.90;97.60
1702;DHT22;848;48.354;10.064;2023-06-04T09:52:08;23.80;98.70
1702;DHT22;848;48.354;10.064;2023-06-04T09:54:37;23.90;98.60
1702;DHT22;848;48.354;10.064;2023-06-04T09:57:05;24.20;99.30
1702;DHT22;848;48.354;10.064;2023-06-04T09:59:37;24.30;98.30
1702;DHT22;848;48.354;10.064;2023-06-04T10:02:09;24.30;98.10
1702;DHT22;848;48.354;10.064;2023-06-04T10:04:36;24.00;97.30
1702;DHT22;848;48.354;10.064;2023-06-04T10:07:05;24.10;98.10
1702;DHT22;848;48.354;10.064;2023-06-04T10:09:34;24.10;97.20
1702;DHT22;848;48.354;10.064;2023-06-04T10:12:04;24.00;96.70
1702;DHT22;848;48.354;10.064;2023-06-04T10:14:37;23.90;97.30
1702;DHT22;848;48.354;10.064;2023-06-04T10:17:06;23.80;97.40
1702;DHT22;848;48.354;10.064;2023-06-04T10:19:34;23.90;98.20
1702;DHT22;848;48.354;10.064;2023-06-04T10:22:01;23.80;96.80
1702;DHT22;848;48.354;10.064;2023-06-04T10:24:29;23.70;97.00
1702;DHT22;848;48.354;10.064;2023-06-04T10:26:58;23.70;97.40
1702;DHT22;848;48.354;10.064;2023-06-04T10:29:26;23.70;98.50
1702;DHT22;848;48.354;10.064;2023-06-04T10:31:56;23.80;99.90
1702;DHT22;848;48.354;10.064;2023-06-04T10:34:23;24.00;99.20
1702;DHT22;848;48.354;10.064;2023-06-04T10:36:50;24.20;97.50
1702;DHT22;848;48.354;10.064;2023-06-04T10:39:25;24.00;97.10
1702;DHT22;848;48.354;10.064;2023-06-04T10:41:58;23.70;97.80
1702;DHT22;848;48.354;10.064;2023-06-04T10:44:27;23.50;99.30
1702;DHT22;848;48.354;10.064;2023-06-04T10:46:53;23.70;99.90
1702;DHT22;848;48.354;10.064;2023-06-04T10:49:27;23.70;96.90
1702;DHT22;848;48.354;10.064;2023-06-04T10:51:54;23.60;98.40
1702;DHT22;848;48.354;10.064;2023-06-04T10:54:24;23.40;96.80
1702;DHT22;848;48.354;10.064;2023-06-04T10:56:52;23.20;96.80
1702;DHT22;848;48.354;10.064;2023-06-04T10:59:19;23.20;96.80
1702;DHT22;848;48.354;10.064;2023-06-04T11:01:48;23.10;97.40
1702;DHT22;848;48.354;10.064;2023-06-04T11:04:19;23.20;98.00
1702;DHT22;848;48.354;10.064;2023-06-04T11:06:46;23.20;97.30
1702;DHT22;848;48.354;10.064;2023-06-04T11:09:14;23.20;96.50
1702;DHT22;848;48.354;10.064;2023-06-04T11:11:42;23.30;98.60
1702;DHT22;848;48.354;10.064;2023-06-04T11:14:10;23.50;98.20
1702;DHT22;848;48.354;10.064;2023-06-04T11:16:38;23.70;97.20
1702;DHT22;848;48.354;10.064;2023-06-04T11:19:06;23.50;96.40
1702;DHT22;848;48.354;10.064;2023-06-04T11:21:34;23.40;96.00
1702;DHT22;848;48.354;10.064;2023-06-04T11:24:04;23.30;95.40
1702;DHT22;848;48.354;10.064;2023-06-04T11:26:31;23.30;96.30
1702;DHT22;848;48.354;10.064;2023-06-04T11:28:59;23.20;96.30
1702;DHT22;848;48.354;10.064;2023-06-04T11:31:26;23.30;96.30
1702;DHT22;848;48.354;10.064;2023-06-04T11:33:53;23.50;98.30
1702;DHT22;848;48.354;10.064;2023-06-04T11:36:25;23.60;95.90
1702;DHT22;848;48.354;10.064;2023-06-04T11:38:56;23.60;96.20
1702;DHT22;848;48.354;10.064;2023-06-04T11:41:24;23.60;95.80
1702;DHT22;848;48.354;10.064;2023-06-04T11:43:51;23.60;95.90
1702;DHT22;848;48.354;10.064;2023-06-04T11:46:19;23.70;95.50
1702;DHT22;848;48.354;10.064;2023-06-04T11:48:46;23.80;95.50
1702;DHT22;848;48.354;10.064;2023-06-04T11:51:13;23.60;95.90
1702;DHT22;848;48.354;10.064;2023-06-04T11:53:41;23.40;96.30
1702;DHT22;848;48.354;10.064;2023-06-04T11:56:08;23.30;96.80
1702;DHT22;848;48.354;10.064;2023-06-04T11:58:37;23.30;96.10
1702;DHT22;848;48.354;10.064;2023-06-04T12:01:04;23.20;95.90
1702;DHT22;848;48.354;10.064;2023-06-04T12:03:35;23.20;96.30
1702;DHT22;848;48.354;10.064;2023-06-04T12:06:14;23.10;95.40
1702;DHT22;848;48.354;10.064;2023-06-04T12:08:49;23.00;95.70
1702;DHT22;848;48.354;10.064;2023-06-04T12:11:27;23.00;95.70
1702;DHT22;848;48.354;10.064;2023-06-04T12:13:55;22.90;95.80
1702;DHT22;848;48.354;10.064;2023-06-04T12:16:22;22.80;96.30
1702;DHT22;848;48.354;10.064;2023-06-04T12:18:49;22.70;95.60
1702;DHT22;848;48.354;10.064;2023-06-04T12:21:24;22.60;96.20
1702;DHT22;848;48.354;10.064;2023-06-04T12:24:07;22.60;96.30
1702;DHT22;848;48.354;10.064;2023-06-04T12:26:35;22.60;96.00
1702;DHT22;848;48.354;10.064;2023-06-04T12:29:10;22.50;96.00
1702;DHT22;848;48.354;10.064;2023-06-04T12:31:38;22.50;96.40
1702;DHT22;848;48.354;10.064;2023-06-04T12:34:05;22.40;95.80
1702;DHT22;848;48.354;10.064;2023-06-04T12:36:32;22.40;95.90
1702;DHT22;848;48.354;10.064;2023-06-04T12:39:02;22.40;95.80
1702;DHT22;848;48.354;10.064;2023-06-04T12:41:31;22.50;96.30
1702;DHT22;848;48.354;10.064;2023-06-04T12:43:59;22.50;96.30
1702;DHT22;848;48.354;10.064;2023-06-04T12:46:26;22.60;97.50
1702;DHT22;848;48.354;10.064;2023-06-04T12:48:54;22.60;96.80
1702;DHT22;848;48.354;10.064;2023-06-04T12:51:21;22.60;96.80
1702;DHT22;848;48.354;10.064;2023-06-04T12:53:49;22.50;95.90
1702;DHT22;848;48.354;10.064;2023-06-04T12:56:16;22.50;94.50
1702;DHT22;848;48.354;10.064;2023-06-04T12:58:45;22.50;94.70
1702;DHT22;848;48.354;10.064;2023-06-04T13:01:12;22.40;94.70
1702;DHT22;848;48.354;10.064;2023-06-04T13:03:40;22.40;94.70
1702;DHT22;848;48.354;10.064;2023-06-04T13:06:07;22.40;94.70
1702;DHT22;848;48.354;10.064;2023-06-04T13:08:34;22.40;94.40
1702;DHT22;848;48.354;10.064;2023-06-04T13:11:01;22.40;94.90
1702;DHT22;848;48.354;10.064;2023-06-04T13:13:28;22.50;95.40
1702;DHT22;848;48.354;10.064;2023-06-04T13:15:57;22.50;95.40
1702;DHT22;848;48.354;10.064;2023-06-04T13:18:24;22.50;95.30
1702;DHT22;848;48.354;10.064;2023-06-04T13:20:51;22.50;94.30
1702;DHT22;848;48.354;10.064;2023-06-04T13:23:18;22.50;94.60
1702;DHT22;848;48.354;10.064;2023-06-04T13:25:45;22.50;94.30
1702;DHT22;848;48.354;10.064;2023-06-04T13:28:12;22.40;94.10
1702;DHT22;848;48.354;10.064;2023-06-04T13:30:39;22.60;94.10
1702;DHT22;848;48.354;10.064;2023-06-04T13:33:07;22.60;93.80
1702;DHT22;848;48.354;10.064;2023-06-04T13:35:35;22.60;93.00
1702;DHT22;848;48.354;10.064;2023-06-04T13:38:03;22.50;93.70
1702;DHT22;848;48.354;10.064;2023-06-04T13:40:31;22.50;92.50
1702;DHT22;848;48.354;10.064;2023-06-04T13:42:58;22.50;93.40
1702;DHT22;848;48.354;10.064;2023-06-04T13:45:25;22.50;95.00
1702;DHT22;848;48.354;10.064;2023-06-04T13:47:52;22.60;93.60
1702;DHT22;848;48.354;10.064;2023-06-04T13:50:20;22.60;93.70
1702;DHT22;848;48.354;10.064;2023-06-04T13:52:47;22.60;92.80
1702;DHT22;848;48.354;10.064;2023-06-04T13:55:14;22.60;93.70
1702;DHT22;848;48.354;10.064;2023-06-04T13:57:41;22.50;92.40
1702;DHT22;848;48.354;10.064;2023-06-04T14:00:08;22.50;94.00
1702;DHT22;848;48.354;10.064;2023-06-04T14:02:35;22.50;93.80
1702;DHT22;848;48.354;10.064;2023-06-04T14:05:04;22.50;92.60
1702;DHT22;848;48.354;10.064;2023-06-04T14:07:33;22.50;93.20
1702;DHT22;848;48.354;10.064;2023-06-04T14:10:00;22.60;92.90
1702;DHT22;848;48.354;10.064;2023-06-04T14:12:26;22.60;94.20
1702;DHT22;848;48.354;10.064;2023-06-04T14:14:53;22.60;92.80
1702;DHT22;848;48.354;10.064;2023-06-04T14:17:20;22.70;93.10
1702;DHT22;848;48.354;10.064;2023-06-04T14:19:47;22.80;90.90
1702;DHT22;848;48.354;10.064;2023-06-04T14:22:14;22.70;92.00
1702;DHT22;848;48.354;10.064;2023-06-04T14:24:42;22.80;91.20
1702;DHT22;848;48.354;10.064;2023-06-04T14:27:09;22.70;91.30
1702;DHT22;848;48.354;10.064;2023-06-04T14:29:36;22.60;92.20
1702;DHT22;848;48.354;10.064;2023-06-04T14:32:04;22.60;91.20
1702;DHT22;848;48.354;10.064;2023-06-04T14:34:31;22.70;92.60
1702;DHT22;848;48.354;10.064;2023-06-04T14:36:58;22.60;91.70
1702;DHT22;848;48.354;10.064;2023-06-04T14:39:26;22.60;91.70
1702;DHT22;848;48.354;10.064;2023-06-04T14:41:55;22.70;91.30
1702;DHT22;848;48.354;10.064;2023-06-04T14:44:22;22.70;91.60
1702;DHT22;848;48.354;10.064;2023-06-04T14:46:49;22.70;90.80
1702;DHT22;848;48.354;10.064;2023-06-04T14:49:17;22.60;91.40
1702;DHT22;848;48.354;10.064;2023-06-04T14:51:45;22.60;92.40
1702;DHT22;848;48.354;10.064;2023-06-04T14:54:12;22.70;92.20
1702;DHT22;848;48.354;10.064;2023-06-04T14:56:39;22.60;91.70
1702;DHT22;848;48.354;10.064;2023-06-04T14:59:09;22.50;92.10
1702;DHT22;848;48.354;10.064;2023-06-04T15:01:37;22.50;91.40
1702;DHT22;848;48.354;10.064;2023-06-04T15:04:06;22.60;91.20
1702;DHT22;848;48.354;10.064;2023-06-04T15:06:33;22.70;90.60
1702;DHT22;848;48.354;10.064;2023-06-04T15:09:00;22.80;90.90
1702;DHT22;848;48.354;10.064;2023-06-04T15:11:27;22.80;90.70
1702;DHT22;848;48.354;10.064;2023-06-04T15:13:54;22.70;91.10
1702;DHT22;848;48.354;10.064;2023-06-04T15:16:23;22.70;91.20
1702;DHT22;848;48.354;10.064;2023-06-04T15:18:50;22.90;91.70
1702;DHT22;848;48.354;10.064;2023-06-04T15:21:17;22.90;91.90
1702;DHT22;848;48.354;10.064;2023-06-04T15:23:44;22.90;90.60
1702;DHT22;848;48.354;10.064;2023-06-04T15:26:14;22.80;90.40
1702;DHT22;848;48.354;10.064;2023-06-04T15:28:42;22.80;90.30
1702;DHT22;848;48.354;10.064;2023-06-04T15:31:08;22.70;90.40
1702;DHT22;848;48.354;10.064;2023-06-04T15:33:37;22.70;91.40
1702;DHT22;848;48.354;10.064;2023-06-04T15:36:05;22.60;91.50
1702;DHT22;848;48.354;10.064;2023-06-04T15:38:32;22.50;93.20
1702;DHT22;848;48.354;10.064;2023-06-04T15:40:59;22.40;92.50
1702;DHT22;848;48.354;10.064;2023-06-04T15:43:26;22.40;92.40
1702;DHT22;848;48.354;10.064;2023-06-04T15:45:53;22.40;93.10
1702;DHT22;848;48.354;10.064;2023-06-04T15:48:20;22.50;93.00
1702;DHT22;848;48.354;10.064;2023-06-04T15:50:49;22.50;92.50
1702;DHT22;848;48.354;10.064;2023-06-04T15:53:16;22.50;92.00
1702;DHT22;848;48.354;10.064;2023-06-04T15:55:43;22.40;91.80
1702;DHT22;848;48.354;10.064;2023-06-04T15:58:11;22.50;92.20
1702;DHT22;848;48.354;10.064;2023-06-04T16:00:37;22.60;91.20
1702;DHT22;848;48.354;10.064;2023-06-04T16:03:04;22.60;91.20
1702;DHT22;848;48.354;10.064;2023-06-04T16:05:31;22.60;91.90
1702;DHT22;848;48.354;10.064;2023-06-04T16:08:00;22.60;92.10